createdAt,value
2023-05-03T00:01:31.637Z,102761.66
2023-05-03T00:03:59.229Z,102756.59
2023-05-03T00:06:26.913Z,102758.47
2023-05-03T00:08:54.589Z,102758.47
2023-05-03T00:11:23.587Z,102767.22
2023-05-03T00:13:51.181Z,102760.09
2023-05-03T00:16:19.712Z,102754.69
2023-05-03T00:18:49.083Z,102759.97
2023-05-03T00:21:17.074Z,102757.31
2023-05-03T00:23:44.744Z,102756.69
2023-05-03T00:26:12.332Z,102757.75
2023-05-03T00:28:41.307Z,102759.66
2023-05-03T00:31:09.910Z,102766.19
2023-05-03T00:33:38.359Z,102767.31
2023-05-03T00:36:09.958Z,102772.72
2023-05-03T00:38:37.736Z,102782.50
2023-05-03T00:41:05.748Z,102773.84
2023-05-03T00:43:33.857Z,102777.44
2023-05-03T00:46:16.171Z,102771.44
2023-05-03T00:48:44.751Z,102783.09
2023-05-03T00:51:15.468Z,102781.53
2023-05-03T00:53:43.672Z,102775.50
2023-05-03T00:56:12.285Z,102786.16
2023-05-03T00:58:40.595Z,102787.31
2023-05-03T01:01:09.864Z,102782.97
2023-05-03T01:03:41.354Z,102776.22
2023-05-03T01:06:17.930Z,102776.31
2023-05-03T01:08:51.854Z,102775.66
2023-05-03T01:11:28.261Z,102778.50
2023-05-03T01:13:58.263Z,102771.72
2023-05-03T01:16:35.915Z,102771.94
2023-05-03T01:19:08.476Z,102779.94
2023-05-03T01:21:38.012Z,102775.63
2023-05-03T01:24:12.489Z,102781.94
2023-05-03T01:26:41.527Z,102787.31
2023-05-03T01:29:09.170Z,102777.72
2023-05-03T01:31:40.411Z,102781.28
2023-05-03T01:34:23.001Z,102777.06
2023-05-03T01:36:51.706Z,102780.63
2023-05-03T01:39:28.196Z,102785.16
2023-05-03T01:41:59.150Z,102787.06
2023-05-03T01:44:27.809Z,102795.03
2023-05-03T01:46:55.510Z,102794.38
2023-05-03T01:49:23.134Z,102797.13
2023-05-03T01:51:50.771Z,102799.03
2023-05-03T01:54:18.421Z,102801.88
2023-05-03T01:56:46.873Z,102805.44
2023-05-03T01:59:15.881Z,102799.31
2023-05-03T02:01:43.656Z,102805.53
2023-05-03T02:04:11.765Z,102812.69
2023-05-03T02:06:39.397Z,102815.41
2023-05-03T02:09:07.154Z,102811.00
2023-05-03T02:11:34.807Z,102811.19
2023-05-03T02:14:02.408Z,102816.47
2023-05-03T02:16:31.482Z,102806.13
2023-05-03T02:18:59.557Z,102801.78
2023-05-03T02:21:27.705Z,102806.19
2023-05-03T02:23:55.928Z,102807.25
2023-05-03T02:26:23.553Z,102803.88
2023-05-03T02:28:51.128Z,102810.06
2023-05-03T02:31:18.770Z,102817.13
2023-05-03T02:33:47.795Z,102814.66
2023-05-03T02:36:15.456Z,102807.81
2023-05-03T02:38:43.070Z,102813.28
2023-05-03T02:41:10.679Z,102817.78
2023-05-03T02:43:38.286Z,102817.88
2023-05-03T02:46:05.969Z,102820.63
2023-05-03T02:48:33.572Z,102817.22
2023-05-03T02:51:03.312Z,102817.41
2023-05-03T02:53:30.953Z,102814.75
2023-05-03T02:55:58.597Z,102811.38
2023-05-03T02:58:26.170Z,102815.06
2023-05-03T03:00:53.906Z,102817.78
2023-05-03T03:03:21.657Z,102814.59
2023-05-03T03:05:49.317Z,102818.91
2023-05-03T03:08:19.360Z,102818.91
2023-05-03T03:10:47.032Z,102811.88
2023-05-03T03:13:14.668Z,102816.19
2023-05-03T03:15:42.334Z,102815.31
2023-05-03T03:18:10.020Z,102805.66
2023-05-03T03:20:37.732Z,102813.47
2023-05-03T03:23:05.309Z,102812.63
2023-05-03T03:25:34.293Z,102809.97
2023-05-03T03:28:01.935Z,102806.50
2023-05-03T03:30:29.914Z,102801.91
2023-05-03T03:32:57.559Z,102798.41
2023-05-03T03:35:25.853Z,102809.69
2023-05-03T03:37:53.506Z,102819.84
2023-05-03T03:40:21.159Z,102815.25
2023-05-03T03:42:50.122Z,102814.88
2023-05-03T03:45:18.079Z,102804.97
2023-05-03T03:47:45.783Z,102814.28
2023-05-03T03:50:13.527Z,102817.47
2023-05-03T03:52:41.284Z,102815.50
2023-05-03T03:55:09.150Z,102816.16
2023-05-03T03:57:36.715Z,102809.75
2023-05-03T04:00:10.836Z,102812.09
2023-05-03T04:02:38.749Z,102818.88
2023-05-03T04:05:08.068Z,102820.28
2023-05-03T04:07:35.692Z,102829.56
2023-05-03T04:10:03.594Z,102812.53
2023-05-03T04:12:31.406Z,102814.75
2023-05-03T04:14:59.051Z,102825.56
2023-05-03T04:17:29.164Z,102826.22
2023-05-03T04:19:56.953Z,102816.00
2023-05-03T04:22:24.756Z,102820.59
2023-05-03T04:24:53.093Z,102818.44
2023-05-03T04:27:20.668Z,102824.19
2023-05-03T04:29:49.093Z,102828.09
2023-05-03T04:32:16.957Z,102839.59
2023-05-03T04:34:47.883Z,102825.38
2023-05-03T04:37:17.662Z,102827.50
2023-05-03T04:39:45.777Z,102836.22
2023-05-03T04:42:15.210Z,102831.34
2023-05-03T04:44:43.487Z,102825.28
2023-05-03T04:47:11.763Z,102828.56
2023-05-03T04:49:39.907Z,102826.06
2023-05-03T04:52:10.205Z,102824.56
2023-05-03T04:54:37.792Z,102828.69
2023-05-03T04:57:05.526Z,102830.41
2023-05-03T04:59:33.109Z,102821.91
2023-05-03T05:02:00.928Z,102831.47
2023-05-03T05:04:28.660Z,102824.66
2023-05-03T05:06:56.261Z,102813.25
2023-05-03T05:09:26.819Z,102814.28
2023-05-03T05:11:57.009Z,102812.72
2023-05-03T05:14:25.092Z,102816.53
2023-05-03T05:16:53.165Z,102821.81
2023-05-03T05:19:20.797Z,102820.50
2023-05-03T05:21:48.424Z,102825.31
2023-05-03T05:24:16.131Z,102812.94
2023-05-03T05:26:45.471Z,102827.19
2023-05-03T05:29:13.097Z,102828.72
2023-05-03T05:31:40.763Z,102827.00
2023-05-03T05:34:08.467Z,102825.25
2023-05-03T05:36:36.222Z,102828.59
2023-05-03T05:39:04.622Z,102833.66
2023-05-03T05:41:32.256Z,102834.22
2023-05-03T05:44:01.215Z,102842.59
2023-05-03T05:46:28.840Z,102846.38
2023-05-03T05:48:56.505Z,102845.66
2023-05-03T05:51:24.066Z,102862.03
2023-05-03T05:53:51.705Z,102861.59
2023-05-03T05:56:19.299Z,102857.41
2023-05-03T05:58:46.874Z,102862.94
2023-05-03T06:01:15.796Z,102868.09
2023-05-03T06:03:43.763Z,102872.34
2023-05-03T06:06:11.471Z,102865.59
2023-05-03T06:08:39.122Z,102877.06
2023-05-03T06:11:07.689Z,102873.88
2023-05-03T06:13:38.415Z,102876.16
2023-05-03T06:16:06.831Z,102880.38
2023-05-03T06:18:35.843Z,102877.13
2023-05-03T06:21:03.527Z,102887.19
2023-05-03T06:23:32.421Z,102882.75
2023-05-03T06:25:59.991Z,102883.44
2023-05-03T06:28:27.587Z,102885.66
2023-05-03T06:30:55.182Z,102879.22
2023-05-03T06:33:22.891Z,102886.41
2023-05-03T06:35:52.253Z,102893.25
2023-05-03T06:38:20.097Z,102885.69
2023-05-03T06:40:48.038Z,102887.56
2023-05-03T06:43:15.786Z,102891.50
2023-05-03T06:45:44.516Z,102900.78
2023-05-03T06:48:12.172Z,102889.41
2023-05-03T06:50:40.274Z,102901.63
2023-05-03T06:53:09.211Z,102888.03
2023-05-03T06:55:36.902Z,102894.06
2023-05-03T06:58:09.872Z,102891.09
2023-05-03T07:00:39.059Z,102892.91
2023-05-03T07:03:07.071Z,102893.81
2023-05-03T07:05:35.054Z,102890.97
2023-05-03T07:08:03.524Z,102896.06
2023-05-03T07:10:32.524Z,102888.59
2023-05-03T07:13:00.138Z,102893.16
2023-05-03T07:15:28.103Z,102888.66
2023-05-03T07:17:55.818Z,102885.75
2023-05-03T07:20:23.487Z,102876.84
2023-05-03T07:22:51.043Z,102874.34
2023-05-03T07:25:18.821Z,102874.81
2023-05-03T07:27:47.765Z,102865.03
2023-05-03T07:30:15.931Z,102876.41
2023-05-03T07:32:43.740Z,102876.13
2023-05-03T07:35:11.517Z,102873.97
2023-05-03T07:37:39.086Z,102872.56
2023-05-03T07:40:07.966Z,102874.34
2023-05-03T07:42:35.639Z,102875.81
2023-05-03T07:45:05.087Z,102878.16
2023-05-03T07:47:33.167Z,102882.16
2023-05-03T07:50:01.660Z,102867.13
2023-05-03T07:52:29.391Z,102876.63
2023-05-03T07:54:57.009Z,102875.94
2023-05-03T07:57:25.809Z,102879.56
2023-05-03T07:59:53.402Z,102881.69
2023-05-03T08:02:22.670Z,102881.13
2023-05-03T08:04:50.683Z,102878.53
2023-05-03T08:07:18.430Z,102883.19
2023-05-03T08:09:46.068Z,102886.69
2023-05-03T08:12:13.709Z,102889.22
2023-05-03T08:14:41.630Z,102894.09
2023-05-03T08:17:09.623Z,102896.78
2023-05-03T08:19:38.609Z,102894.41
2023-05-03T08:22:07.409Z,102899.09
2023-05-03T08:24:35.104Z,102901.06
2023-05-03T08:27:02.797Z,102900.34
2023-05-03T08:29:30.424Z,102901.78
2023-05-03T08:31:58.331Z,102898.25
2023-05-03T08:34:26.344Z,102888.66
2023-05-03T08:36:55.301Z,102897.13
2023-05-03T08:39:24.502Z,102899.22
2023-05-03T08:41:52.112Z,102901.56
2023-05-03T08:44:23.163Z,102895.47
2023-05-03T08:46:51.048Z,102895.09
2023-05-03T08:49:19.403Z,102898.09
2023-05-03T08:51:48.252Z,102899.88
2023-05-03T08:54:20.666Z,102901.94
2023-05-03T08:56:48.718Z,102903.47
2023-05-03T08:59:17.348Z,102906.88
2023-05-03T09:01:45.166Z,102901.22
2023-05-03T09:04:13.231Z,102909.25
2023-05-03T09:06:41.369Z,102902.38
2023-05-03T09:09:09.587Z,102894.34
2023-05-03T09:11:39.686Z,102891.88
2023-05-03T09:14:11.929Z,102890.97
2023-05-03T09:16:40.425Z,102891.84
2023-05-03T09:19:11.801Z,102896.75
2023-05-03T09:21:40.353Z,102896.38
2023-05-03T09:24:14.915Z,102894.69
2023-05-03T09:26:45.477Z,102893.75
2023-05-03T09:29:29.051Z,102891.72
2023-05-03T09:32:01.420Z,102897.69
2023-05-03T09:34:29.242Z,102897.25
2023-05-03T09:36:56.870Z,102903.13
2023-05-03T09:39:24.602Z,102898.53
2023-05-03T09:41:53.615Z,102899.63
2023-05-03T09:44:21.400Z,102908.56
2023-05-03T09:47:05.184Z,102908.09
2023-05-03T09:49:33.354Z,102906.47
2023-05-03T09:52:02.710Z,102909.44
2023-05-03T09:54:31.911Z,102915.44
2023-05-03T09:57:02.338Z,102918.69
2023-05-03T09:59:30.157Z,102919.34
2023-05-03T10:01:59.855Z,102913.94
2023-05-03T10:04:28.845Z,102914.75
2023-05-03T10:07:00.839Z,102913.81
2023-05-03T10:09:39.837Z,102912.03
2023-05-03T10:12:12.350Z,102903.66
2023-05-03T10:14:42.502Z,102907.19
2023-05-03T10:17:17.804Z,102908.69
2023-05-03T10:19:52.193Z,102906.25
2023-05-03T10:22:19.804Z,102902.78
2023-05-03T10:25:08.716Z,102894.00
2023-05-03T10:28:03.418Z,102897.22
2023-05-03T10:30:32.827Z,102893.31
2023-05-03T10:33:19.893Z,102890.84
2023-05-03T10:35:53.085Z,102888.31
2023-05-03T10:38:22.650Z,102897.00
2023-05-03T10:40:50.801Z,102902.66
2023-05-03T10:43:46.564Z,102903.78
2023-05-03T10:46:35.309Z,102902.41
2023-05-03T10:49:23.170Z,102898.69
2023-05-03T10:51:51.757Z,102896.63
2023-05-03T10:54:19.683Z,102899.81
2023-05-03T10:56:52.209Z,102892.06
2023-05-03T10:59:21.937Z,102893.38
2023-05-03T11:01:51.370Z,102896.13
2023-05-03T11:04:36.007Z,102896.25
2023-05-03T11:07:04.551Z,102890.94
2023-05-03T11:09:34.600Z,102889.44
2023-05-03T11:12:06.480Z,102893.34
2023-05-03T11:14:35.561Z,102894.69
2023-05-03T11:17:03.396Z,102894.44
2023-05-03T11:19:31.274Z,102890.38
2023-05-03T11:21:59.099Z,102892.56
2023-05-03T11:24:26.776Z,102889.69
2023-05-03T11:26:54.477Z,102893.47
2023-05-03T11:29:22.195Z,102889.25
2023-05-03T11:31:52.679Z,102889.56
2023-05-03T11:34:20.356Z,102890.22
2023-05-03T11:36:49.277Z,102889.81
2023-05-03T11:39:18.157Z,102891.09
2023-05-03T11:42:02.674Z,102888.69
2023-05-03T11:44:30.491Z,102887.72
2023-05-03T11:46:59.869Z,102884.03
2023-05-03T11:49:27.972Z,102887.59
2023-05-03T11:51:55.774Z,102887.59
2023-05-03T11:54:26.838Z,102890.16
2023-05-03T11:56:57.714Z,102880.69
2023-05-03T11:59:35.833Z,102883.41
2023-05-03T12:02:05.309Z,102888.09
2023-05-03T12:04:33.692Z,102885.50
2023-05-03T12:07:03.217Z,102895.09
2023-05-03T12:09:31.751Z,102895.56
2023-05-03T12:12:02.357Z,102893.66
2023-05-03T12:14:51.131Z,102901.94
2023-05-03T12:17:37.570Z,102896.97
2023-05-03T12:22:51.264Z,102894.78
2023-05-03T12:25:20.791Z,102889.22
2023-05-03T12:28:05.463Z,102887.91
2023-05-03T12:30:40.090Z,102890.75
2023-05-03T12:33:10.749Z,102886.16
2023-05-03T12:35:41.043Z,102893.56
2023-05-03T12:38:10.298Z,102887.91
2023-05-03T12:40:39.686Z,102891.06
2023-05-03T12:43:07.775Z,102888.13
2023-05-03T12:45:38.743Z,102880.53
2023-05-03T12:48:09.747Z,102877.97
2023-05-03T12:50:39.349Z,102878.59
2023-05-03T12:53:10.009Z,102874.47
2023-05-03T12:55:43.157Z,102880.22
2023-05-03T13:00:50.645Z,102883.38
2023-05-03T13:03:33.713Z,102877.78
2023-05-03T13:06:11.803Z,102873.38
2023-05-03T13:08:49.570Z,102871.72
2023-05-03T13:11:19.174Z,102872.53
2023-05-03T13:13:47.321Z,102875.31
2023-05-03T13:16:15.033Z,102872.22
2023-05-03T13:18:45.393Z,102860.72
2023-05-03T13:21:13.134Z,102862.09
2023-05-03T13:23:40.865Z,102862.91
2023-05-03T13:26:08.530Z,102853.22
2023-05-03T13:28:36.183Z,102850.69
2023-05-03T13:31:03.967Z,102852.22
2023-05-03T13:33:31.862Z,102862.75
2023-05-03T13:36:00.786Z,102855.31
2023-05-03T13:38:28.399Z,102848.34
2023-05-03T13:40:56.010Z,102844.75
2023-05-03T13:43:23.572Z,102836.94
2023-05-03T13:45:52.647Z,102841.53
2023-05-03T13:48:20.444Z,102837.13
2023-05-03T13:50:48.104Z,102838.88
2023-05-03T13:53:17.934Z,102836.47
2023-05-03T13:55:45.570Z,102834.03
2023-05-03T13:58:13.231Z,102833.09
2023-05-03T14:00:41.068Z,102841.38
2023-05-03T14:03:08.747Z,102835.88
2023-05-03T14:05:36.533Z,102827.19
2023-05-03T14:08:04.297Z,102827.66
2023-05-03T14:10:36.710Z,102829.03
2023-05-03T14:13:04.578Z,102819.63
2023-05-03T14:15:32.466Z,102825.03
2023-05-03T14:18:03.048Z,102824.88
2023-05-03T14:20:34.218Z,102824.19
2023-05-03T14:23:02.166Z,102823.09
2023-05-03T14:25:30.109Z,102828.16
2023-05-03T14:27:59.083Z,102835.41
2023-05-03T14:30:26.684Z,102829.06
2023-05-03T14:32:54.309Z,102819.94
2023-05-03T14:35:23.050Z,102829.75
2023-05-03T14:37:50.616Z,102833.06
2023-05-03T14:40:18.237Z,102826.69
2023-05-03T14:42:46.021Z,102834.41
2023-05-03T14:45:15.470Z,102825.53
2023-05-03T14:47:43.174Z,102818.31
2023-05-03T14:50:11.559Z,102814.59
2023-05-03T14:52:39.139Z,102821.84
2023-05-03T14:55:08.041Z,102816.28
2023-05-03T14:57:36.393Z,102826.34
2023-05-03T15:00:07.391Z,102816.78
2023-05-03T15:02:36.723Z,102818.47
2023-05-03T15:05:05.074Z,102805.06
2023-05-03T15:07:32.705Z,102810.06
2023-05-03T15:10:03.754Z,102806.72
2023-05-03T15:12:32.004Z,102807.22
2023-05-03T15:15:00.151Z,102803.06
2023-05-03T15:17:27.940Z,102801.75
2023-05-03T15:19:57.259Z,102792.84
2023-05-03T15:22:24.865Z,102800.53
2023-05-03T15:24:52.477Z,102800.22
2023-05-03T15:27:20.058Z,102793.34
2023-05-03T15:29:47.678Z,102799.69
2023-05-03T15:32:15.343Z,102800.22
2023-05-03T15:34:43.059Z,102798.38
2023-05-03T15:37:13.022Z,102801.41
2023-05-03T15:39:40.668Z,102803.56
2023-05-03T15:42:08.575Z,102802.50
2023-05-03T15:44:36.225Z,102806.75
2023-05-03T15:47:03.836Z,102791.75
2023-05-03T15:49:31.970Z,102798.66
2023-05-03T15:51:59.602Z,102797.44
2023-05-03T15:54:28.533Z,102791.28
2023-05-03T15:56:56.320Z,102789.47
2023-05-03T15:59:23.953Z,102785.94
2023-05-03T16:01:52.239Z,102784.44
2023-05-03T16:04:20.249Z,102792.13
2023-05-03T16:06:48.460Z,102790.44
2023-05-03T16:09:16.556Z,102790.78
2023-05-03T16:11:45.490Z,102790.53
2023-05-03T16:14:13.136Z,102784.47
2023-05-03T16:16:41.922Z,102780.53
2023-05-03T16:19:09.835Z,102774.97
2023-05-03T16:21:37.629Z,102780.22
2023-05-03T16:24:05.794Z,102790.34
2023-05-03T16:26:34.520Z,102784.94
2023-05-03T16:29:04.007Z,102780.19
2023-05-03T16:31:31.757Z,102776.00
2023-05-03T16:33:59.435Z,102774.03
2023-05-03T16:36:27.990Z,102770.06
2023-05-03T16:38:59.018Z,102771.16
2023-05-03T16:41:26.698Z,102767.03
2023-05-03T16:43:54.323Z,102769.19
2023-05-03T16:46:23.465Z,102767.66
2023-05-03T16:48:51.873Z,102768.88
2023-05-03T16:51:21.735Z,102769.91
2023-05-03T16:53:49.400Z,102758.38
2023-05-03T16:56:17.391Z,102776.13
2023-05-03T16:58:45.184Z,102769.41
2023-05-03T17:01:13.213Z,102755.00
2023-05-03T17:03:42.653Z,102764.75
2023-05-03T17:06:10.353Z,102762.16
2023-05-03T17:08:38.117Z,102768.88
2023-05-03T17:11:08.398Z,102756.34
2023-05-03T17:13:36.205Z,102754.09
2023-05-03T17:16:08.554Z,102757.69
2023-05-03T17:18:36.945Z,102758.41
2023-05-03T17:21:06.230Z,102756.31
2023-05-03T17:23:36.396Z,102750.13
2023-05-03T17:26:04.688Z,102745.97
2023-05-03T17:28:32.897Z,102759.06
2023-05-03T17:31:02.797Z,102745.56
2023-05-03T17:33:30.759Z,102758.13
2023-05-03T17:36:00.626Z,102752.44
2023-05-03T17:38:29.669Z,102750.59
2023-05-03T17:40:57.279Z,102746.22
2023-05-03T17:43:24.886Z,102746.47
2023-05-03T17:45:52.547Z,102750.44
2023-05-03T17:48:20.319Z,102748.38
2023-05-03T17:50:47.893Z,102742.97
2023-05-03T17:53:16.934Z,102740.50
2023-05-03T17:55:45.899Z,102746.06
2023-05-03T17:58:13.484Z,102746.88
2023-05-03T18:00:41.223Z,102748.00
2023-05-03T18:03:10.418Z,102743.78
2023-05-03T18:05:38.286Z,102737.47
2023-05-03T18:08:06.251Z,102743.44
2023-05-03T18:10:33.845Z,102746.25
2023-05-03T18:13:04.429Z,102750.22
2023-05-03T18:15:32.262Z,102744.81
2023-05-03T18:17:59.941Z,102744.81
2023-05-03T18:20:27.581Z,102752.38
2023-05-03T18:22:55.265Z,102750.41
2023-05-03T18:25:22.923Z,102744.06
2023-05-03T18:27:50.521Z,102756.03
2023-05-03T18:30:19.601Z,102748.13
2023-05-03T18:32:47.238Z,102758.44
2023-05-03T18:35:15.228Z,102752.91
2023-05-03T18:37:43.567Z,102746.75
2023-05-03T18:40:11.701Z,102740.63
2023-05-03T18:42:39.277Z,102753.38
2023-05-03T18:45:07.762Z,102749.75
2023-05-03T18:47:36.819Z,102757.59
2023-05-03T18:50:05.190Z,102753.97
2023-05-03T18:52:33.009Z,102754.53
2023-05-03T18:55:00.632Z,102755.25
2023-05-03T18:57:28.767Z,102759.59
2023-05-03T19:00:01.170Z,102768.25
2023-05-03T19:02:31.136Z,102761.81
2023-05-03T19:05:00.890Z,102765.16
2023-05-03T19:07:28.947Z,102764.16
2023-05-03T19:09:57.088Z,102764.59
2023-05-03T19:12:25.444Z,102761.78
2023-05-03T19:14:53.108Z,102771.16
2023-05-03T19:17:20.737Z,102768.63
2023-05-03T19:19:48.323Z,102780.66
2023-05-03T19:22:17.287Z,102776.59
2023-05-03T19:24:44.914Z,102774.47
2023-05-03T19:27:13.007Z,102786.63
2023-05-03T19:29:40.634Z,102778.59
2023-05-03T19:32:08.196Z,102781.78
2023-05-03T19:34:36.430Z,102780.78
2023-05-03T19:37:04.482Z,102792.09
2023-05-03T19:39:35.663Z,102793.59
2023-05-03T19:42:03.879Z,102796.03
2023-05-03T19:44:31.880Z,102796.69
2023-05-03T19:46:59.611Z,102806.03
2023-05-03T19:49:27.264Z,102802.22
2023-05-03T19:51:55.815Z,102797.97
2023-05-03T19:54:23.663Z,102806.34
2023-05-03T19:56:52.595Z,102805.66
2023-05-03T19:59:20.209Z,102800.00
2023-05-03T20:01:48.290Z,102803.88
2023-05-03T20:04:16.328Z,102800.53
2023-05-03T20:06:44.066Z,102807.66
2023-05-03T20:09:11.786Z,102808.00
2023-05-03T20:11:39.401Z,102810.66
2023-05-03T20:14:08.465Z,102808.75
2023-05-03T20:16:38.962Z,102801.03
2023-05-03T20:19:06.936Z,102812.88
2023-05-03T20:21:34.572Z,102808.66
2023-05-03T20:24:04.567Z,102811.72
2023-05-03T20:26:32.147Z,102814.88
2023-05-03T20:28:59.770Z,102813.78
2023-05-03T20:31:28.725Z,102807.31
2023-05-03T20:33:56.641Z,102807.94
2023-05-03T20:36:24.286Z,102810.97
2023-05-03T20:38:51.978Z,102815.22
2023-05-03T20:41:19.561Z,102824.66
2023-05-03T20:43:47.176Z,102819.84
2023-05-03T20:46:14.839Z,102822.03
2023-05-03T20:48:43.840Z,102824.06
2023-05-03T20:51:11.577Z,102827.09
2023-05-03T20:53:39.147Z,102820.44
2023-05-03T20:56:07.854Z,102828.78
2023-05-03T20:58:36.269Z,102822.88
2023-05-03T21:01:05.370Z,102825.06
2023-05-03T21:03:33.463Z,102817.22
2023-05-03T21:06:02.695Z,102816.59
2023-05-03T21:08:30.276Z,102817.84
2023-05-03T21:10:57.882Z,102810.84
2023-05-03T21:13:25.520Z,102812.41
2023-05-03T21:15:53.130Z,102815.19
2023-05-03T21:18:20.773Z,102811.78
2023-05-03T21:20:48.419Z,102814.19
2023-05-03T21:23:17.356Z,102811.78
2023-05-03T21:25:45.020Z,102803.13
2023-05-03T21:28:12.674Z,102807.72
2023-05-03T21:30:41.953Z,102809.75
2023-05-03T21:33:10.034Z,102807.25
2023-05-03T21:35:37.796Z,102801.94
2023-05-03T21:38:05.401Z,102806.63
2023-05-03T21:40:34.400Z,102794.47
2023-05-03T21:43:02.187Z,102799.41
2023-05-03T21:45:29.886Z,102793.97
2023-05-03T21:47:57.468Z,102794.94
2023-05-03T21:50:25.358Z,102783.84
2023-05-03T21:52:52.917Z,102787.47
2023-05-03T21:55:20.898Z,102788.91
2023-05-03T21:57:49.836Z,102790.69
2023-05-03T22:00:20.443Z,102776.03
2023-05-03T22:02:48.305Z,102788.06
2023-05-03T22:05:16.061Z,102780.81
2023-05-03T22:07:43.675Z,102793.97
2023-05-03T22:10:11.387Z,102778.06
2023-05-03T22:12:39.268Z,102776.59
2023-05-03T22:15:09.197Z,102782.59
2023-05-03T22:17:37.268Z,102779.47
2023-05-03T22:20:05.996Z,102774.66
2023-05-03T22:22:33.851Z,102777.28
2023-05-03T22:25:01.534Z,102778.66
2023-05-03T22:27:29.184Z,102781.53
2023-05-03T22:29:57.031Z,102777.34
2023-05-03T22:32:26.564Z,102782.09
2023-05-03T22:34:54.163Z,102777.28
2023-05-03T22:37:21.964Z,102776.47
2023-05-03T22:39:49.610Z,102772.34
2023-05-03T22:42:17.545Z,102775.44
2023-05-03T22:44:45.125Z,102773.16
2023-05-03T22:47:12.741Z,102778.78
2023-05-03T22:49:41.655Z,102779.94
2023-05-03T22:52:09.520Z,102781.47
2023-05-03T22:54:37.120Z,102774.13
2023-05-03T22:57:05.023Z,102779.72
2023-05-03T22:59:32.612Z,102775.00
2023-05-03T23:02:00.330Z,102778.72
2023-05-03T23:04:27.930Z,102773.44
2023-05-03T23:06:56.876Z,102773.66
2023-05-03T23:09:24.674Z,102766.06
2023-05-03T23:11:52.269Z,102765.09
2023-05-03T23:14:19.854Z,102756.31
2023-05-03T23:16:47.501Z,102757.91
2023-05-03T23:19:15.202Z,102760.31
2023-05-03T23:21:42.836Z,102765.38
2023-05-03T23:24:12.243Z,102760.84
2023-05-03T23:26:40.297Z,102761.44
2023-05-03T23:29:09.467Z,102760.38
2023-05-03T23:31:38.460Z,102760.28
2023-05-03T23:34:07.026Z,102756.06
2023-05-03T23:36:34.626Z,102757.97
2023-05-03T23:39:02.853Z,102756.06
2023-05-03T23:41:33.291Z,102750.75
2023-05-03T23:44:00.901Z,102753.41
2023-05-03T23:46:28.555Z,102758.56
2023-05-03T23:48:56.186Z,102756.91
2023-05-03T23:51:23.806Z,102752.09
2023-05-03T23:53:51.426Z,102757.28
2023-05-03T23:56:19.001Z,102747.53
2023-05-03T23:58:48.317Z,102750.19
